Hlavní strana
METAR-TAF:

METAR-TAF

Letiště :

Ammán, Jordánsko

zeměpisná šířka: 31-59N, zeměpisná délka: 035-59E, výška: 767 m

Aktuální stav počasí

Zpráva byla vytvořena před 55 minutami, v 08:00 UTC
Východojihovýchodní vítr 6 kt
Teplota 32°C
Vlhkost vzduchu 10%
Tlak 1013 hPa
Viditelnost: 4000 m
zákal,

METAR: OJAM 250800Z 12006KT 4000 HZ NSC 32/M04 Q1013 NOSIG

Čas: 11:55 (08:55 UTC)

Předpověď počasí

Zpráva byla vytvořena před 3 hodinami a 55 minutami, v 05:00 UTC
Předpověď platná od 25 v 06 UTC do 26 v 12 UTC
Východojihovýchodní vítr 8 kt
Viditelnost: 5000 m
zákal
Pravděpodobnost 40% :
Dočasný
od 25 v 09 UTC do 25 v 18 UTC
Jihovýchodní vítr 16 kt
Viditelnost: 2000 m
zvířený prach
Pravděpodobnost 40% :
Dočasný
od 25 v 18 UTC do 26 v 12 UTC
Viditelnost: 3000 m
rozsáhlý prach
Změna
od 26 v 04 UTC do 26 v 06 UTC
Západoseverozápadní vítr 10 kt

TAF: OJAM 250500Z 2506/2612 11008KT 5000 HZ NSC PROB40 TEMPO 2509/2518 13016KT 2000 BLDU PROB40 TEMPO 2518/2612 3000 DU BECMG 2604/2606 30010KT

Stav a předpovědi počasí z více než 4 000 letišť (zprávy METAR a TAF).

Červené a žluté tečky na mapě představují dostupné meteorologické stanice.

Když kurzor umístíte na tečku, zobrazí se název stanice.

Pak kliknutím zobrazíte stav a předpověď počasí.

Chcete-li změnit mapu, kliknutím na zelené tlačítko se znaménkem +mapu přiblížíte, kliknutím na zelené tlačítko se znaménkem – mapu oddálíte a kliknutím na zelené šipky přejdete na sousední mapy.


METAR-TAF: